createdAt,value
2023-02-19T00:00:30.588Z,4.44
2023-02-19T00:03:19.953Z,4.44
2023-02-19T00:05:49.247Z,4.40
2023-02-19T00:08:18.605Z,4.38
2023-02-19T00:10:47.777Z,4.39
2023-02-19T00:13:19.073Z,4.39
2023-02-19T00:15:48.308Z,4.39
2023-02-19T00:18:17.735Z,4.37
2023-02-19T00:20:47.139Z,4.35
2023-02-19T00:23:16.589Z,4.30
2023-02-19T00:25:45.726Z,4.28
2023-02-19T00:28:15.088Z,4.32
2023-02-19T00:30:45.782Z,4.29
2023-02-19T00:33:15.519Z,4.29
2023-02-19T00:35:44.877Z,4.29
2023-02-19T00:38:14.255Z,4.20
2023-02-19T00:40:43.570Z,4.22
2023-02-19T00:43:13.525Z,4.19
2023-02-19T00:45:42.545Z,4.17
2023-02-19T00:48:13.412Z,4.17
2023-02-19T00:50:43.284Z,4.16
2023-02-19T00:53:12.627Z,4.12
2023-02-19T00:55:41.790Z,4.07
2023-02-19T00:58:11.130Z,4.11
2023-02-19T01:00:40.417Z,4.09
2023-02-19T01:03:09.767Z,4.06
2023-02-19T01:05:40.492Z,4.04
2023-02-19T01:08:09.953Z,4.00
2023-02-19T01:10:39.011Z,3.97
2023-02-19T01:13:08.520Z,3.94
2023-02-19T01:15:37.768Z,3.92
2023-02-19T01:18:07.297Z,3.91
2023-02-19T01:20:36.479Z,3.88
2023-02-19T01:23:07.344Z,3.84
2023-02-19T01:25:38.989Z,3.81
2023-02-19T01:28:09.245Z,3.79
2023-02-19T01:30:38.731Z,3.77
2023-02-19T01:33:09.661Z,3.72
2023-02-19T01:35:41.031Z,3.66
2023-02-19T01:38:12.017Z,3.68
2023-02-19T01:40:41.194Z,3.68
2023-02-19T01:43:17.116Z,3.69
2023-02-19T01:45:47.627Z,3.67
2023-02-19T01:48:21.712Z,3.67
2023-02-19T01:50:55.536Z,3.67
2023-02-19T01:53:31.719Z,3.68
2023-02-19T01:56:02.190Z,3.70
2023-02-19T01:58:35.594Z,3.70
2023-02-19T02:01:08.108Z,3.73
2023-02-19T02:03:40.029Z,3.74
2023-02-19T02:06:16.830Z,3.76
2023-02-19T02:09:06.051Z,3.79
2023-02-19T02:11:35.501Z,3.78
2023-02-19T02:14:06.465Z,3.79
2023-02-19T02:16:40.668Z,3.84
2023-02-19T02:19:31.746Z,3.85
2023-02-19T02:22:08.242Z,3.88
2023-02-19T02:25:06.764Z,3.85
2023-02-19T02:27:55.256Z,3.88
2023-02-19T02:30:44.050Z,3.94
2023-02-19T02:33:21.913Z,3.95
2023-02-19T02:35:55.301Z,3.94
2023-02-19T02:38:29.508Z,3.97
2023-02-19T02:40:59.575Z,3.99
2023-02-19T02:43:29.552Z,4.03
2023-02-19T02:46:00.987Z,3.98
2023-02-19T02:48:38.479Z,3.99
2023-02-19T02:51:15.111Z,4.01
2023-02-19T02:54:28.833Z,4.03
2023-02-19T02:57:01.087Z,4.05
2023-02-19T02:59:35.482Z,4.07
2023-02-19T03:02:11.143Z,4.05
2023-02-19T03:05:03.674Z,4.08
2023-02-19T03:07:45.568Z,4.08
2023-02-19T03:10:18.742Z,4.06
2023-02-19T03:13:08.831Z,4.06
2023-02-19T03:16:00.169Z,4.09
2023-02-19T03:18:51.735Z,4.05
2023-02-19T03:21:25.080Z,4.09
2023-02-19T03:24:15.070Z,4.10
2023-02-19T03:26:54.123Z,4.05
2023-02-19T03:29:29.155Z,4.05
2023-02-19T03:32:10.339Z,4.13
2023-02-19T03:34:45.721Z,4.10
2023-02-19T03:37:21.784Z,4.12
2023-02-19T03:39:51.491Z,4.13
2023-02-19T03:42:29.310Z,4.14
2023-02-19T03:45:15.002Z,4.13
2023-02-19T03:47:53.218Z,4.14
2023-02-19T03:50:30.860Z,4.11
2023-02-19T03:53:07.102Z,4.12
2023-02-19T03:55:46.065Z,4.04
2023-02-19T03:58:23.842Z,4.03
2023-02-19T04:00:58.888Z,3.99
2023-02-19T04:03:39.144Z,3.95
2023-02-19T04:06:14.973Z,3.93
2023-02-19T04:08:50.539Z,3.92
2023-02-19T04:11:23.269Z,3.92
2023-02-19T04:14:01.877Z,3.90
2023-02-19T04:16:34.776Z,3.88
2023-02-19T04:19:09.873Z,3.83
2023-02-19T04:21:42.835Z,3.86
2023-02-19T04:24:15.537Z,3.85
2023-02-19T04:26:46.564Z,3.80
2023-02-19T04:29:15.849Z,3.79
2023-02-19T04:31:45.224Z,3.79
2023-02-19T04:34:14.440Z,3.77
2023-02-19T04:36:46.038Z,3.75
2023-02-19T04:39:15.363Z,3.70
2023-02-19T04:41:44.843Z,3.68
2023-02-19T04:44:13.997Z,3.69
2023-02-19T04:46:43.568Z,3.65
2023-02-19T04:49:13.079Z,3.65
2023-02-19T04:51:44.426Z,3.64
2023-02-19T04:54:13.571Z,3.66
2023-02-19T04:56:42.956Z,3.63
2023-02-19T04:59:12.442Z,3.59
2023-02-19T05:01:41.830Z,3.56
2023-02-19T05:04:11.218Z,3.57
2023-02-19T05:06:40.637Z,3.58
2023-02-19T05:09:11.295Z,3.59
2023-02-19T05:11:40.762Z,3.54
2023-02-19T05:14:09.931Z,3.52
2023-02-19T05:16:39.362Z,3.50
2023-02-19T05:19:08.398Z,3.51
2023-02-19T05:21:37.982Z,3.51
2023-02-19T05:24:07.490Z,3.53
2023-02-19T05:26:38.185Z,3.54
2023-02-19T05:29:07.411Z,3.49
2023-02-19T05:31:36.890Z,3.42
2023-02-19T05:34:06.027Z,3.37
2023-02-19T05:36:37.195Z,3.44
2023-02-19T05:39:07.586Z,3.41
2023-02-19T05:41:39.063Z,3.46
2023-02-19T05:44:08.382Z,3.41
2023-02-19T05:46:37.913Z,3.43
2023-02-19T05:49:06.990Z,3.49
2023-02-19T05:51:36.845Z,3.45
2023-02-19T05:54:06.197Z,3.37
2023-02-19T05:56:39.513Z,3.34
2023-02-19T05:59:16.123Z,3.38
2023-02-19T06:01:46.267Z,3.36
2023-02-19T06:04:17.292Z,3.41
2023-02-19T06:06:47.703Z,3.37
2023-02-19T06:09:16.905Z,3.36
2023-02-19T06:11:47.785Z,3.41
2023-02-19T06:14:17.134Z,3.44
2023-02-19T06:16:46.489Z,3.44
2023-02-19T06:19:15.591Z,3.49
2023-02-19T06:21:45.002Z,3.49
2023-02-19T06:24:14.068Z,3.43
2023-02-19T06:26:43.399Z,3.44
2023-02-19T06:29:14.037Z,3.46
2023-02-19T06:31:44.928Z,3.50
2023-02-19T06:34:14.524Z,3.51
2023-02-19T06:36:44.623Z,3.52
2023-02-19T06:39:13.826Z,3.54
2023-02-19T06:41:43.277Z,3.55
2023-02-19T06:44:13.864Z,3.56
2023-02-19T06:46:43.671Z,3.61
2023-02-19T06:49:12.734Z,3.56
2023-02-19T06:51:42.234Z,3.62
2023-02-19T06:54:11.542Z,3.64
2023-02-19T06:56:42.394Z,3.68
2023-02-19T06:59:16.905Z,3.74
2023-02-19T07:01:47.387Z,3.71
2023-02-19T07:04:16.809Z,3.75
2023-02-19T07:06:46.193Z,3.79
2023-02-19T07:09:15.641Z,3.79
2023-02-19T07:11:46.344Z,3.85
2023-02-19T07:14:18.735Z,3.88
2023-02-19T07:16:48.812Z,3.86
2023-02-19T07:19:18.110Z,3.89
2023-02-19T07:21:47.489Z,3.94
2023-02-19T07:24:16.820Z,3.97
2023-02-19T07:26:46.159Z,3.97
2023-02-19T07:29:17.268Z,4.02
2023-02-19T07:31:46.948Z,4.00
2023-02-19T07:34:16.020Z,4.00
2023-02-19T07:36:45.522Z,4.07
2023-02-19T07:39:15.749Z,4.09
2023-02-19T07:41:45.361Z,4.11
2023-02-19T07:44:29.195Z,4.08
2023-02-19T07:46:59.263Z,4.08
2023-02-19T07:49:28.849Z,4.09
2023-02-19T07:51:58.675Z,4.10
2023-02-19T07:54:28.062Z,4.10
2023-02-19T07:56:57.442Z,4.13
2023-02-19T07:59:29.252Z,4.06
2023-02-19T08:02:16.405Z,4.11
2023-02-19T08:04:45.829Z,4.10
2023-02-19T08:07:15.522Z,4.12
2023-02-19T08:09:44.905Z,4.16
2023-02-19T08:12:31.341Z,4.17
2023-02-19T08:15:02.001Z,4.15
2023-02-19T08:17:32.473Z,4.16
2023-02-19T08:20:01.781Z,4.18
2023-02-19T08:22:33.428Z,4.21
2023-02-19T08:25:02.557Z,4.26
2023-02-19T08:27:31.894Z,4.27
2023-02-19T08:30:02.487Z,4.27
2023-02-19T08:32:34.246Z,4.29
2023-02-19T08:35:05.887Z,4.29
2023-02-19T08:37:37.559Z,4.30
2023-02-19T08:40:09.447Z,4.33
2023-02-19T08:42:40.483Z,4.36
2023-02-19T08:45:13.634Z,4.39
2023-02-19T08:47:43.894Z,4.36
2023-02-19T08:50:13.759Z,4.38
2023-02-19T08:52:45.348Z,4.45
2023-02-19T08:55:15.142Z,4.43
2023-02-19T08:57:44.717Z,4.42
2023-02-19T09:00:17.074Z,4.43
2023-02-19T09:02:49.585Z,4.43
2023-02-19T09:05:19.091Z,4.45
2023-02-19T09:07:48.580Z,4.54
2023-02-19T09:10:17.891Z,4.57
2023-02-19T09:12:48.552Z,4.56
2023-02-19T09:15:19.949Z,4.57
2023-02-19T09:17:53.497Z,4.60
2023-02-19T09:20:22.839Z,4.66
2023-02-19T09:22:57.374Z,4.65
2023-02-19T09:25:27.313Z,4.73
2023-02-19T09:27:57.356Z,4.74
2023-02-19T09:30:29.480Z,4.78
2023-02-19T09:32:59.004Z,4.78
2023-02-19T09:35:28.089Z,4.82
2023-02-19T09:38:02.043Z,4.86
2023-02-19T09:40:33.338Z,4.95
2023-02-19T09:43:03.890Z,5.03
2023-02-19T09:45:36.066Z,5.10
2023-02-19T09:48:07.032Z,5.15
2023-02-19T09:50:39.882Z,5.15
2023-02-19T09:53:16.883Z,5.16
2023-02-19T09:55:46.742Z,5.20
2023-02-19T09:58:35.575Z,5.31
2023-02-19T10:01:12.136Z,5.38
2023-02-19T10:03:46.963Z,5.45
2023-02-19T10:06:20.634Z,5.54
2023-02-19T10:08:51.912Z,5.57
2023-02-19T10:11:21.231Z,5.59
2023-02-19T10:13:54.696Z,5.62
2023-02-19T10:16:29.327Z,5.70
2023-02-19T10:18:58.836Z,5.76
2023-02-19T10:21:29.459Z,5.79
2023-02-19T10:24:01.837Z,5.80
2023-02-19T10:26:34.867Z,5.86
2023-02-19T10:29:05.154Z,5.91
2023-02-19T10:31:35.927Z,5.90
2023-02-19T10:34:07.637Z,5.98
2023-02-19T10:36:39.868Z,6.13
2023-02-19T10:39:30.104Z,6.19
2023-02-19T10:42:00.531Z,6.24
2023-02-19T10:44:33.507Z,6.32
2023-02-19T10:47:04.278Z,6.41
2023-02-19T10:49:40.322Z,6.44
2023-02-19T10:52:17.863Z,6.50
2023-02-19T10:54:50.560Z,6.55
2023-02-19T10:57:34.546Z,6.54
2023-02-19T11:00:20.155Z,6.55
2023-02-19T11:03:15.410Z,6.59
2023-02-19T11:05:56.386Z,6.61
2023-02-19T11:08:26.487Z,6.56
2023-02-19T11:10:56.203Z,6.55
2023-02-19T11:13:32.520Z,6.59
2023-02-19T11:16:03.446Z,6.54
2023-02-19T11:18:36.392Z,6.57
2023-02-19T11:21:08.412Z,6.65
2023-02-19T11:23:45.198Z,6.72
2023-02-19T11:26:20.485Z,6.71
2023-02-19T11:28:59.736Z,6.72
2023-02-19T11:31:32.272Z,6.71
2023-02-19T11:34:05.047Z,6.71
2023-02-19T11:36:36.681Z,6.76
2023-02-19T11:39:22.695Z,6.78
2023-02-19T11:42:10.199Z,6.78
2023-02-19T11:44:48.854Z,6.89
2023-02-19T11:47:53.197Z,6.97
2023-02-19T11:50:30.536Z,7.05
2023-02-19T11:53:15.899Z,7.10
2023-02-19T11:55:58.570Z,7.15
2023-02-19T11:58:52.818Z,7.23
2023-02-19T12:01:31.896Z,7.27
2023-02-19T12:04:26.596Z,7.25
2023-02-19T12:07:07.658Z,7.12
2023-02-19T12:10:04.402Z,7.05
2023-02-19T12:12:51.696Z,6.98
2023-02-19T12:15:36.380Z,6.86
2023-02-19T12:18:36.267Z,6.84
2023-02-19T12:21:19.845Z,6.79
2023-02-19T12:24:19.318Z,6.76
2023-02-19T12:27:03.927Z,6.74
2023-02-19T12:29:48.971Z,6.79
2023-02-19T12:32:44.599Z,6.77
2023-02-19T12:35:52.490Z,6.79
2023-02-19T12:38:32.545Z,6.80
2023-02-19T12:41:15.899Z,6.77
2023-02-19T12:43:53.019Z,6.80
2023-02-19T12:46:29.497Z,6.80
2023-02-19T12:49:06.269Z,6.85
2023-02-19T12:51:44.575Z,6.88
2023-02-19T12:54:21.085Z,6.89
2023-02-19T12:56:57.088Z,6.86
2023-02-19T12:59:34.232Z,6.90
2023-02-19T13:02:14.002Z,6.84
2023-02-19T13:04:48.694Z,6.87
2023-02-19T13:07:25.571Z,6.91
2023-02-19T13:10:00.448Z,6.95
2023-02-19T13:12:34.882Z,6.99
2023-02-19T13:15:14.931Z,6.95
2023-02-19T13:17:51.822Z,6.82
2023-02-19T13:20:27.422Z,6.74
2023-02-19T13:23:22.901Z,6.66
2023-02-19T13:26:13.659Z,6.53
2023-02-19T13:29:01.321Z,6.49
2023-02-19T13:31:50.323Z,6.49
2023-02-19T13:34:32.464Z,6.43
2023-02-19T13:37:03.328Z,6.43
2023-02-19T13:39:36.366Z,6.49
2023-02-19T13:42:06.475Z,6.56
2023-02-19T13:44:42.986Z,6.69
2023-02-19T13:47:45.514Z,6.78
2023-02-19T13:50:22.709Z,6.95
2023-02-19T13:52:57.026Z,7.09
2023-02-19T13:55:50.100Z,7.28
2023-02-19T13:59:01.414Z,7.42
2023-02-19T14:02:17.811Z,7.63
2023-02-19T14:04:52.276Z,7.76
2023-02-19T14:07:50.499Z,7.86
2023-02-19T14:10:57.879Z,7.94
2023-02-19T14:14:06.854Z,8.07
2023-02-19T14:17:07.582Z,8.13
2023-02-19T14:19:54.175Z,8.15
2023-02-19T14:23:06.526Z,8.16
2023-02-19T14:25:44.825Z,8.15
2023-02-19T14:28:36.444Z,8.23
2023-02-19T14:31:25.657Z,8.18
2023-02-19T14:34:00.536Z,8.21
2023-02-19T14:36:45.488Z,8.28
2023-02-19T14:39:18.862Z,8.29
2023-02-19T14:41:51.024Z,8.24
2023-02-19T14:44:25.050Z,8.26
2023-02-19T14:46:59.149Z,8.35
2023-02-19T14:49:35.223Z,8.46
2023-02-19T14:52:14.357Z,8.50
2023-02-19T14:54:49.410Z,8.61
2023-02-19T14:57:24.510Z,8.56
2023-02-19T14:59:59.150Z,8.54
2023-02-19T15:02:30.126Z,8.56
2023-02-19T15:05:00.357Z,8.53
2023-02-19T15:07:34.403Z,8.41
2023-02-19T15:10:08.403Z,8.13
2023-02-19T15:12:47.440Z,8.01
2023-02-19T15:15:24.560Z,7.98
2023-02-19T15:17:55.651Z,7.85
2023-02-19T15:20:29.986Z,7.62
2023-02-19T15:23:06.243Z,7.38
2023-02-19T15:25:38.243Z,7.17
2023-02-19T15:28:29.577Z,6.95
2023-02-19T15:31:14.832Z,6.65
2023-02-19T15:33:54.666Z,6.41
2023-02-19T15:36:30.815Z,6.15
2023-02-19T15:39:03.817Z,5.94
2023-02-19T15:41:36.740Z,5.79
2023-02-19T15:44:24.576Z,5.60
2023-02-19T15:46:55.987Z,5.43
2023-02-19T15:49:31.190Z,5.29
2023-02-19T15:52:09.698Z,5.15
2023-02-19T15:54:49.656Z,5.04
2023-02-19T15:57:26.082Z,4.93
2023-02-19T16:00:03.458Z,4.82
2023-02-19T16:02:42.138Z,4.60
2023-02-19T16:05:17.950Z,4.49
2023-02-19T16:08:08.890Z,4.42
2023-02-19T16:10:40.672Z,4.34
2023-02-19T16:13:14.472Z,4.23
2023-02-19T16:16:00.290Z,4.15
2023-02-19T16:18:31.440Z,4.06
2023-02-19T16:21:01.600Z,3.94
2023-02-19T16:23:32.010Z,3.88
2023-02-19T16:26:05.648Z,3.83
2023-02-19T16:28:39.957Z,3.72
2023-02-19T16:31:11.209Z,3.65
2023-02-19T16:33:46.508Z,3.60
2023-02-19T16:36:27.446Z,3.55
2023-02-19T16:39:18.505Z,3.49
2023-02-19T16:42:19.744Z,3.43
2023-02-19T16:44:50.212Z,3.37
2023-02-19T16:47:31.020Z,3.35
2023-02-19T16:50:08.945Z,3.29
2023-02-19T16:52:51.058Z,3.20
2023-02-19T16:55:23.592Z,3.18
2023-02-19T16:57:56.751Z,3.15
2023-02-19T17:00:32.882Z,3.12
2023-02-19T17:03:09.273Z,3.13
2023-02-19T17:05:41.455Z,3.05
2023-02-19T17:08:34.284Z,2.98
2023-02-19T17:11:07.609Z,2.97
2023-02-19T17:13:38.634Z,2.91
2023-02-19T17:16:11.270Z,2.92
2023-02-19T17:18:42.874Z,2.89
2023-02-19T17:21:17.334Z,2.82
2023-02-19T17:23:46.955Z,2.77
2023-02-19T17:26:18.521Z,2.76
2023-02-19T17:28:49.278Z,2.75
2023-02-19T17:31:19.829Z,2.71
2023-02-19T17:33:50.138Z,2.64
2023-02-19T17:36:22.124Z,2.58
2023-02-19T17:38:51.531Z,2.58
2023-02-19T17:41:20.904Z,2.56
2023-02-19T17:43:53.866Z,2.56
2023-02-19T17:46:26.770Z,2.50
2023-02-19T17:48:56.742Z,2.49
2023-02-19T17:51:26.201Z,2.47
2023-02-19T17:53:55.537Z,2.44
2023-02-19T17:56:27.077Z,2.41
2023-02-19T17:58:58.373Z,2.37
2023-02-19T18:01:32.500Z,2.34
2023-02-19T18:04:01.782Z,2.31
2023-02-19T18:06:31.596Z,2.32
2023-02-19T18:09:00.942Z,2.32
2023-02-19T18:11:31.188Z,2.31
2023-02-19T18:14:02.042Z,2.27
2023-02-19T18:16:31.826Z,2.25
2023-02-19T18:19:02.439Z,2.26
2023-02-19T18:21:32.031Z,2.24
2023-02-19T18:24:04.009Z,2.25
2023-02-19T18:26:33.985Z,2.24
2023-02-19T18:29:06.523Z,2.23
2023-02-19T18:31:37.579Z,2.26
2023-02-19T18:34:07.911Z,2.30
2023-02-19T18:36:37.497Z,2.29
2023-02-19T18:39:06.773Z,2.27
2023-02-19T18:41:36.220Z,2.26
2023-02-19T18:44:07.023Z,2.26
2023-02-19T18:46:39.205Z,2.32
2023-02-19T18:49:09.030Z,2.38
2023-02-19T18:51:38.552Z,2.34
2023-02-19T18:54:08.192Z,2.36
2023-02-19T18:56:43.450Z,2.42
2023-02-19T18:59:15.008Z,2.41
2023-02-19T19:01:52.047Z,2.45
2023-02-19T19:04:25.779Z,2.52
2023-02-19T19:06:55.447Z,2.48
2023-02-19T19:09:24.514Z,2.58
2023-02-19T19:11:54.023Z,2.55
2023-02-19T19:14:24.723Z,2.58
2023-02-19T19:16:54.402Z,2.66
2023-02-19T19:19:23.735Z,2.74
2023-02-19T19:21:54.225Z,2.75
2023-02-19T19:24:24.911Z,2.82
2023-02-19T19:26:54.942Z,2.83
2023-02-19T19:29:27.366Z,2.91
2023-02-19T19:31:57.325Z,2.94
2023-02-19T19:34:26.386Z,2.96
2023-02-19T19:36:55.922Z,2.96
2023-02-19T19:39:26.347Z,3.06
2023-02-19T19:41:56.945Z,3.07
2023-02-19T19:44:29.862Z,3.06
2023-02-19T19:46:59.863Z,3.11
2023-02-19T19:49:30.430Z,3.15
2023-02-19T19:52:01.187Z,3.17
2023-02-19T19:54:31.750Z,3.25
2023-02-19T19:57:01.836Z,3.27
2023-02-19T19:59:35.044Z,3.37
2023-02-19T20:02:04.841Z,3.38
2023-02-19T20:04:34.290Z,3.37
2023-02-19T20:07:06.375Z,3.38
2023-02-19T20:09:35.957Z,3.45
2023-02-19T20:12:05.674Z,3.45
2023-02-19T20:14:36.310Z,3.52
2023-02-19T20:17:08.159Z,3.55
2023-02-19T20:19:39.810Z,3.59
2023-02-19T20:22:09.580Z,3.61
2023-02-19T20:24:39.087Z,3.68
2023-02-19T20:27:11.206Z,3.68
2023-02-19T20:29:41.902Z,3.71
2023-02-19T20:32:15.122Z,3.72
2023-02-19T20:34:44.646Z,3.73
2023-02-19T20:37:14.114Z,3.74
2023-02-19T20:39:45.367Z,3.76
2023-02-19T20:42:17.004Z,3.80
2023-02-19T20:44:48.216Z,3.80
2023-02-19T20:47:17.862Z,3.83
2023-02-19T20:49:47.626Z,3.85
2023-02-19T20:52:19.054Z,3.87
2023-02-19T20:54:48.812Z,3.94
2023-02-19T20:57:18.518Z,3.97
2023-02-19T20:59:49.330Z,4.00
2023-02-19T21:02:24.959Z,4.00
2023-02-19T21:04:54.394Z,4.00
2023-02-19T21:07:24.264Z,4.03
2023-02-19T21:09:56.194Z,4.05
2023-02-19T21:12:25.654Z,4.09
2023-02-19T21:14:56.096Z,4.08
2023-02-19T21:17:25.794Z,4.12
2023-02-19T21:19:55.013Z,4.15
2023-02-19T21:22:24.478Z,4.18
2023-02-19T21:24:54.158Z,4.20
2023-02-19T21:27:23.690Z,4.21
2023-02-19T21:29:53.177Z,4.23
2023-02-19T21:32:24.453Z,4.28
2023-02-19T21:34:53.741Z,4.27
2023-02-19T21:37:23.063Z,4.26
2023-02-19T21:39:54.876Z,4.25
2023-02-19T21:42:24.348Z,4.29
2023-02-19T21:44:53.542Z,4.31
2023-02-19T21:47:24.393Z,4.31
2023-02-19T21:49:53.860Z,4.36
2023-02-19T21:52:23.902Z,4.36
2023-02-19T21:54:53.355Z,4.40
2023-02-19T21:57:22.740Z,4.42
2023-02-19T21:59:51.985Z,4.42
2023-02-19T22:02:22.388Z,4.43
2023-02-19T22:04:56.188Z,4.46
2023-02-19T22:07:26.779Z,4.46
2023-02-19T22:09:55.975Z,4.49
2023-02-19T22:12:25.340Z,4.49
2023-02-19T22:14:54.515Z,4.50
2023-02-19T22:17:23.991Z,4.52
2023-02-19T22:19:54.915Z,4.50
2023-02-19T22:22:24.524Z,4.49
2023-02-19T22:24:53.594Z,4.53
2023-02-19T22:27:24.586Z,4.52
2023-02-19T22:29:53.780Z,4.51
2023-02-19T22:32:23.518Z,4.48
2023-02-19T22:34:54.204Z,4.50
2023-02-19T22:37:23.746Z,4.47
2023-02-19T22:39:52.792Z,4.47
2023-02-19T22:42:23.440Z,4.48
2023-02-19T22:44:52.616Z,4.50
2023-02-19T22:47:22.175Z,4.45
2023-02-19T22:49:51.512Z,4.44
2023-02-19T22:52:24.021Z,4.45
2023-02-19T22:54:55.116Z,4.42
2023-02-19T22:57:24.568Z,4.39
2023-02-19T22:59:53.622Z,4.39
2023-02-19T23:02:23.062Z,4.39
2023-02-19T23:04:52.375Z,4.40
2023-02-19T23:07:23.247Z,4.37
2023-02-19T23:09:52.479Z,4.37
2023-02-19T23:12:22.128Z,4.38
2023-02-19T23:14:51.254Z,4.36
2023-02-19T23:17:21.908Z,4.37
2023-02-19T23:19:51.113Z,4.38
2023-02-19T23:22:22.160Z,4.39
2023-02-19T23:24:51.387Z,4.38
2023-02-19T23:27:20.777Z,4.42
2023-02-19T23:29:50.074Z,4.45
2023-02-19T23:32:20.974Z,4.46
2023-02-19T23:34:50.692Z,4.46
2023-02-19T23:37:19.869Z,4.45
2023-02-19T23:39:50.288Z,4.43
2023-02-19T23:42:19.878Z,4.44
2023-02-19T23:44:49.017Z,4.49
2023-02-19T23:47:18.397Z,4.52
2023-02-19T23:49:47.447Z,4.51
2023-02-19T23:52:17.834Z,4.55
2023-02-19T23:54:47.145Z,4.54
2023-02-19T23:57:17.872Z,4.58
2023-02-19T23:59:49.258Z,4.61
